Terminal Aerodrome Forecast
Issued by NWS

Home | Current Version | Previous Version | Text Only | Print | Product List | Glossary On
Versions: 1 2 3 4 5 6 7 8 9 10 11 12 13 14 15 16 17 18 19 20 21 22 23 24 25 26 27 28 29
000
FTUS44 KLIX 131700
TAFHDC
TAF
KHDC 131720Z 1318/1418 16005KT P6SM VCSH BKN050
     FM132300 16004KT P6SM SCT050
     FM140200 00000KT P6SM SCT100
      TEMPO 1410/1412 5SM BR
     FM141400 24005KT P6SM SCT040 SCT250=

USA.gov is the U.S. government's official web portal to all federal, state and local government web resources and services.